Time;durP1;ratioP1;P1;durP2;ratioP2;P2;SDS_P1;SDS_P2;PMS_P1;PMS_P2;Temp;Humidity;BMP_temperature;BMP_pressure;BME280_temperature;BME280_humidity;BME280_pressure;Samples;Min_cycle;Max_cycle;Signal;HPM_P1;HPM_P2
2022/01/02 00:01:03;;;;;;;;;31.00;27.20;;;;;12.92;62.14;100382.00;5049184;28;8877;-77
2022/01/02 00:03:53;;;;;;;;;36.25;34.00;;;;;12.98;61.49;100387.25;5020592;28;8911;-80
2022/01/02 00:06:46;;;;;;;;;33.20;29.40;;;;;12.98;61.41;100381.13;5033840;28;8858;-77
2022/01/02 00:09:37;;;;;;;;;27.80;27.60;;;;;13.02;61.90;100390.75;5008106;28;8870;-77
2022/01/02 00:12:29;;;;;;;;;21.60;20.00;;;;;13.03;61.89;100385.50;5034353;28;8862;-78
2022/01/02 00:15:20;;;;;;;;;32.60;27.80;;;;;13.02;61.33;100377.66;5048510;28;8889;-77
2022/01/02 00:18:11;;;;;;;;;28.20;23.60;;;;;13.03;61.82;100377.66;5034251;28;8882;-79
2022/01/02 00:21:00;;;;;;;;;29.40;25.00;;;;;13.05;61.33;100383.78;5029021;28;8868;-78
2022/01/02 00:23:57;;;;;;;;;20.20;18.60;;;;;13.05;61.12;100382.91;5031032;28;8853;-78
2022/01/02 00:26:49;;;;;;;;;32.00;28.20;;;;;13.07;61.13;100383.78;5030763;28;8841;-78
2022/01/02 00:29:38;;;;;;;;;31.20;27.00;;;;;13.05;61.43;100382.91;5014975;28;8853;-77
2022/01/02 00:32:27;;;;;;;;;27.40;26.20;;;;;13.04;61.20;100389.91;5043800;28;8853;-77
2022/01/02 00:35:14;;;;;;;;;26.60;24.40;;;;;13.05;60.85;100388.16;5030650;28;8857;-79
2022/01/02 00:38:01;;;;;;;;;28.20;28.20;;;;;13.01;61.44;100370.69;5043495;28;8875;-77
2022/01/02 00:40:51;;;;;;;;;7.60;3.20;;;;;13.01;61.06;100383.78;5043530;28;8842;-77
2022/01/02 00:43:46;;;;;;;;;35.80;29.80;;;;;12.99;61.04;100383.75;5029319;28;8841;-76
2022/01/02 00:46:40;;;;;;;;;33.40;32.20;;;;;12.97;60.91;100387.25;5043521;28;8862;-79
2022/01/02 00:49:28;;;;;;;;;28.00;27.60;;;;;12.97;60.93;100384.63;5043060;28;8857;-77
2022/01/02 00:52:18;;;;;;;;;32.80;30.20;;;;;12.96;61.13;100373.28;5043422;28;9079;-77
2022/01/02 00:55:09;;;;;;;;;33.60;31.00;;;;;12.93;61.42;100375.91;5043466;28;8865;-80
2022/01/02 00:57:59;;;;;;;;;31.40;28.20;;;;;12.91;61.28;100380.25;5061500;28;8872;-77
2022/01/02 01:00:51;;;;;;;;;34.20;31.80;;;;;12.94;61.42;100388.09;5062982;28;8907;-79
2022/01/02 01:03:41;;;;;;;;;31.40;28.00;;;;;12.91;61.23;100381.97;5048827;28;8983;-77
2022/01/02 01:06:33;;;;;;;;;24.80;22.60;;;;;12.94;61.57;100395.09;5063380;28;8848;-80
2022/01/02 01:09:21;;;;;;;;;34.80;30.00;;;;;12.78;61.99;100400.28;5062664;28;8865;-77
2022/01/02 01:12:10;;;;;;;;;28.60;26.40;;;;;12.71;62.02;100393.25;5062473;28;8975;-79
2022/01/02 01:14:57;;;;;;;;;28.60;25.80;;;;;12.72;61.81;100386.28;5049950;28;8869;-80
2022/01/02 01:17:47;;;;;;;;;28.60;28.60;;;;;12.71;62.01;100390.63;5062325;28;8968;-79
2022/01/02 01:20:38;;;;;;;;;31.60;30.80;;;;;12.72;61.50;100395.03;5048430;28;8860;-79
2022/01/02 01:23:26;;;;;;;;;33.80;32.20;;;;;12.77;61.65;100392.41;5048619;28;8853;-80
2022/01/02 01:26:17;;;;;;;;;30.80;29.80;;;;;12.74;60.92;100390.66;5048540;28;10014;-79
2022/01/02 01:29:04;;;;;;;;;30.60;27.60;;;;;12.74;61.55;100387.16;5047947;28;8874;-78
2022/01/02 01:31:53;;;;;;;;;33.00;30.00;;;;;12.76;61.26;100390.63;5062467;28;8855;-77
2022/01/02 01:34:43;;;;;;;;;32.40;28.60;;;;;12.79;61.42;100386.28;5020451;28;8856;-79
2022/01/02 01:37:31;;;;;;;;;36.60;31.60;;;;;12.77;61.30;100384.56;5048528;28;8869;-81
2022/01/02 01:40:19;;;;;;;;;36.20;33.00;;;;;12.76;61.43;100380.19;5048126;28;8852;-77
2022/01/02 01:43:09;;;;;;;;;27.80;27.80;;;;;12.77;61.75;100380.19;5062434;28;8930;-77
2022/01/02 01:46:01;;;;;;;;;35.00;32.40;;;;;12.77;60.80;100376.69;5062279;28;8941;-78
2022/01/02 01:48:51;;;;;;;;;36.80;32.40;;;;;12.78;61.20;100379.34;5061986;28;8869;-78
2022/01/02 01:51:40;;;;;;;;;39.00;33.75;;;;;12.64;61.80;100384.47;5047818;28;8864;-77
2022/01/02 01:54:27;;;;;;;;;37.60;33.00;;;;;12.60;61.81;100381.88;5062302;28;8979;-77
2022/01/02 01:57:15;;;;;;;;;38.00;33.80;;;;;12.56;62.07;100374.88;5031717;28;8925;-77
2022/01/02 02:00:05;;;;;;;;;34.75;33.50;;;;;12.58;62.17;100380.97;5067770;28;8982;-78
2022/01/02 02:02:53;;;;;;;;;37.25;35.00;;;;;12.54;62.53;100377.47;5069042;28;8828;-79
2022/01/02 02:05:40;;;;;;;;;33.50;33.50;;;;;12.48;62.07;100375.69;5067875;28;8824;-78
2022/01/02 02:08:29;;;;;;;;;42.00;32.50;;;;;12.35;62.36;100378.25;5067528;28;8856;-80
2022/01/02 02:11:17;;;;;;;;;34.50;33.75;;;;;12.27;63.24;100371.22;5067821;28;8870;-79
2022/01/02 02:14:06;;;;;;;;;36.75;34.50;;;;;12.19;62.69;100374.66;5067768;28;8987;-79
2022/01/02 02:16:56;;;;;;;;;37.50;33.00;;;;;12.13;63.26;100374.63;5067501;28;8856;-80
2022/01/02 02:19:43;;;;;;;;;28.80;28.60;;;;;12.09;63.39;100379.81;5067799;28;8836;-76
2022/01/02 02:22:31;;;;;;;;;39.00;35.00;;;;;12.02;63.04;100383.28;5067620;28;9579;-78
2022/01/02 02:25:21;;;;;;;;;30.80;28.00;;;;;12.00;63.06;100382.41;5067569;28;9235;-79
2022/01/02 02:28:11;;;;;;;;;33.80;29.60;;;;;11.94;63.45;100381.47;5052654;28;8971;-77
2022/01/02 02:30:58;;;;;;;;;37.60;32.80;;;;;11.87;63.74;100375.28;5067712;28;8882;-78
2022/01/02 02:33:45;;;;;;;;;38.75;36.00;;;;;11.83;63.67;100377.00;5067610;28;8844;-78
2022/01/02 02:36:33;;;;;;;;;37.80;29.20;;;;;11.81;63.66;100376.09;5067345;28;8836;-78
2022/01/02 02:39:21;;;;;;;;;37.40;35.60;;;;;11.76;64.07;100376.91;5067258;28;8855;-79
2022/01/02 02:42:22;;;;;;;;;32.50;32.50;;;;;11.73;64.18;100372.56;5053788;28;8864;-78
2022/01/02 02:48:59;;;;;;;;;30.80;29.40;;;;;11.59;64.16;100363.75;5067681;28;8851;-77
2022/01/02 02:51:52;;;;;;;;;33.25;30.75;;;;;11.59;64.06;100362.00;5067792;28;8888;-76
2022/01/02 02:54:59;;;;;;;;;27.80;27.60;;;;;11.57;64.61;100363.72;5053273;28;8874;-77
2022/01/02 02:57:47;;;;;;;;;33.80;30.60;;;;;11.52;64.65;100350.63;5053259;28;8836;-76
2022/01/02 03:00:34;;;;;;;;;28.80;25.60;;;;;11.46;64.66;100362.75;5053634;28;8851;-77
2022/01/02 03:03:21;;;;;;;;;28.60;27.60;;;;;11.43;64.70;100360.09;5067563;28;8836;-79
2022/01/02 03:06:09;;;;;;;;;34.60;29.40;;;;;11.45;65.11;100359.25;5067069;28;8844;-78
2022/01/02 03:09:02;;;;;;;;;30.20;28.40;;;;;11.43;65.43;100362.72;5025067;28;8840;-79
2022/01/02 03:11:51;;;;;;;;;28.80;27.60;;;;;11.45;64.91;100361.88;5067425;28;8852;-79
2022/01/02 03:14:38;;;;;;;;;35.60;30.80;;;;;11.49;64.82;100365.38;5067102;28;8949;-77
2022/01/02 03:17:26;;;;;;;;;30.40;27.40;;;;;11.53;64.92;100361.97;5053007;28;9512;-78
2022/01/02 03:20:13;;;;;;;;;32.40;27.20;;;;;11.59;64.82;100366.38;5053031;28;8894;-79
2022/01/02 03:23:01;;;;;;;;;34.40;32.60;;;;;11.61;64.72;100362.88;5038730;28;9601;-78
2022/01/02 03:25:48;;;;;;;;;30.60;28.00;;;;;11.58;64.85;100360.25;5066910;28;8864;-76
2022/01/02 03:28:37;;;;;;;;;35.80;31.80;;;;;11.57;64.56;100358.50;5066864;28;8836;-78
2022/01/02 03:31:24;;;;;;;;;33.60;32.00;;;;;11.53;64.32;100359.34;5053045;28;8856;-81
2022/01/02 03:34:11;;;;;;;;;33.40;29.60;;;;;11.47;64.97;100357.56;5010633;28;8836;-78
2022/01/02 03:36:58;;;;;;;;;30.20;28.80;;;;;11.38;65.27;100357.47;5066974;28;8848;-77
2022/01/02 03:39:46;;;;;;;;;31.20;30.00;;;;;11.36;64.92;100361.81;5068235;28;8858;-79
2022/01/02 03:42:34;;;;;;;;;36.40;30.60;;;;;11.29;64.95;100360.84;5071442;28;8856;-79
2022/01/02 03:45:23;;;;;;;;;35.80;33.60;;;;;11.31;65.61;100360.88;5027689;28;8840;-77
2022/01/02 03:48:11;;;;;;;;;31.50;31.50;;;;;11.28;65.56;100364.31;5070345;28;8953;-78
2022/01/02 03:50:59;;;;;;;;;33.40;29.40;;;;;11.27;65.52;100361.72;5070053;28;8941;-78
2022/01/02 03:53:45;;;;;;;;;34.20;33.00;;;;;11.28;64.93;100358.22;5027468;28;9550;-78
2022/01/02 03:56:33;;;;;;;;;34.00;30.60;;;;;11.25;65.16;100361.69;5055791;28;8868;-80
2022/01/02 03:59:20;;;;;;;;;30.00;28.50;;;;;11.18;65.54;100359.00;5041187;28;8824;-78
2022/01/02 04:02:09;;;;;;;;;16.75;16.75;;;;;11.17;65.84;100355.53;5070145;28;8856;-78
2022/01/02 04:04:57;;;;;;;;;36.20;32.80;;;;;11.14;65.67;100360.72;5020536;28;8953;-77
2022/01/02 04:07:45;;;;;;;;;34.40;31.00;;;;;11.11;65.94;100358.97;5006755;28;8854;-78
2022/01/02 04:10:33;;;;;;;;;36.40;31.20;;;;;11.11;65.71;100358.97;5034130;28;8874;-77
2022/01/02 04:13:20;;;;;;;;;30.60;30.20;;;;;11.04;65.70;100359.75;5034201;28;8931;-78
2022/01/02 04:16:07;;;;;;;;;34.60;30.20;;;;;11.03;65.40;100347.53;5007201;28;8868;-78
2022/01/02 04:18:56;;;;;;;;;38.00;36.50;;;;;11.04;65.92;100351.00;5034160;28;9673;-77
2022/01/02 04:21:43;;;;;;;;;35.75;34.25;;;;;11.06;65.64;100358.03;5048298;28;8858;-78
2022/01/02 04:24:30;;;;;;;;;35.50;31.75;;;;;11.01;65.75;100364.06;5033778;28;8830;-77
2022/01/02 04:27:19;;;;;;;;;29.25;27.50;;;;;11.01;65.78;100364.91;5033960;28;8865;-80
2022/01/02 04:30:11;;;;;;;;;38.75;35.25;;;;;10.99;65.72;100373.59;5034299;28;8830;-79
2022/01/02 04:32:59;;;;;;;;;34.50;33.00;;;;;10.98;66.10;100374.44;5033614;28;9047;-78
2022/01/02 04:35:48;;;;;;;;;32.00;29.60;;;;;11.00;65.72;100372.72;5043935;28;8835;-79
2022/01/02 04:38:36;;;;;;;;;37.00;35.75;;;;;10.98;65.61;100364.88;5069503;28;8852;-76
2022/01/02 04:41:24;;;;;;;;;31.50;29.00;;;;;10.97;65.47;100363.13;5047891;28;8846;-77
2022/01/02 04:44:12;;;;;;;;;40.25;31.00;;;;;10.93;65.71;100366.56;5033567;28;8873;-78
2022/01/02 04:47:00;;;;;;;;;42.40;31.60;;;;;10.91;65.78;100366.56;5047906;28;8850;-78
2022/01/02 04:49:48;;;;;;;;;44.50;36.00;;;;;10.87;65.91;100367.38;5047506;28;8866;-81
2022/01/02 04:52:37;;;;;;;;;38.50;34.75;;;;;10.84;65.99;100374.28;5032586;28;8858;-76
2022/01/02 04:55:24;;;;;;;;;37.75;34.75;;;;;10.82;66.18;100366.44;5033812;28;9595;-79
2022/01/02 04:58:13;;;;;;;;;35.00;33.50;;;;;10.82;66.00;100363.84;5033294;28;8920;-76
2022/01/02 05:01:02;;;;;;;;;32.00;29.50;;;;;10.79;65.88;100366.41;5033020;28;8893;-79
2022/01/02 05:03:49;;;;;;;;;44.50;37.50;;;;;10.78;65.87;100364.66;5033318;28;8931;-76
2022/01/02 05:06:37;;;;;;;;;35.50;34.75;;;;;10.75;65.95;100374.19;5033254;28;8842;-78
2022/01/02 05:09:27;;;;;;;;;36.00;34.75;;;;;10.73;66.04;100368.94;5019737;28;8850;-78
2022/01/02 05:12:15;;;;;;;;;38.25;35.50;;;;;10.71;66.21;100370.66;5043237;28;9974;-78
2022/01/02 05:15:02;;;;;;;;;44.25;37.00;;;;;10.67;66.01;100364.53;5068633;28;9024;-79
2022/01/02 05:17:50;;;;;;;;;40.25;37.25;;;;;10.60;66.45;100369.66;5054395;28;8897;-78
2022/01/02 05:20:37;;;;;;;;;39.75;36.50;;;;;10.59;66.49;100375.75;5068175;28;8829;-79
2022/01/02 05:23:25;;;;;;;;;37.75;36.50;;;;;10.57;66.40;100369.59;5068363;28;9625;-77
2022/01/02 05:26:14;;;;;;;;;41.50;36.00;;;;;10.55;66.21;100367.00;5054498;28;8840;-78
2022/01/02 05:29:02;;;;;;;;;44.25;37.75;;;;;10.54;66.26;100362.63;5068142;28;8863;-77
2022/01/02 05:31:49;;;;;;;;;45.00;39.25;;;;;10.52;66.29;100373.03;5069066;28;8856;-76
2022/01/02 05:34:36;;;;;;;;;44.25;39.25;;;;;10.52;66.23;100369.56;5068321;28;8844;-79
2022/01/02 05:37:26;;;;;;;;;42.25;37.50;;;;;10.51;66.32;100367.81;5068256;28;8828;-81
2022/01/02 05:40:13;;;;;;;;;35.75;32.25;;;;;10.51;66.69;100366.09;5069322;28;8870;-78
2022/01/02 05:43:04;;;;;;;;;40.50;37.00;;;;;10.50;66.50;100363.44;5069555;28;8848;-78
2022/01/02 05:45:52;;;;;;;;;36.25;35.25;;;;;10.49;66.35;100365.19;5068252;28;8843;-80
2022/01/02 05:48:39;;;;;;;;;25.50;25.25;;;;;10.46;66.78;100353.84;5053976;28;8861;-79
2022/01/02 05:51:26;;;;;;;;;37.25;35.75;;;;;10.43;66.88;100361.59;5068642;28;9613;-77
2022/01/02 05:54:15;;;;;;;;;42.50;37.25;;;;;10.42;66.50;100360.75;5050552;28;8986;-78
2022/01/02 05:57:03;;;;;;;;;37.75;36.00;;;;;10.40;66.92;100369.41;5047529;28;8910;-79
2022/01/02 05:59:52;;;;;;;;;37.50;34.00;;;;;10.39;67.10;100372.84;5019625;28;8995;-79
2022/01/02 06:02:40;;;;;;;;;39.00;35.00;;;;;10.38;66.82;100369.38;5046935;28;8864;-81
2022/01/02 06:05:29;;;;;;;;;39.50;37.25;;;;;10.34;67.08;100371.06;5047139;28;9057;-79
2022/01/02 06:08:17;;;;;;;;;37.00;34.00;;;;;10.38;66.83;100371.09;5047775;28;8857;-80
2022/01/02 06:11:04;;;;;;;;;42.00;35.50;;;;;10.37;66.82;100366.75;5033179;28;10022;-78
2022/01/02 06:13:51;;;;;;;;;47.75;42.00;;;;;10.38;67.31;100369.38;5061475;28;8873;-78
2022/01/02 06:16:43;;;;;;;;;69.00;55.00;;;;;10.35;67.04;100371.94;5061452;28;8882;-77
2022/01/02 06:19:30;;;;;;;;;47.50;40.50;;;;;10.34;67.26;100376.28;5061932;28;8880;-77
2022/01/02 06:22:19;;;;;;;;;38.00;35.75;;;;;10.34;67.04;100370.19;5019398;28;8895;-81
2022/01/02 06:25:07;;;;;;;;;46.25;40.50;;;;;10.35;66.93;100366.72;5062290;28;8848;-79
2022/01/02 06:27:55;;;;;;;;;43.25;39.00;;;;;10.32;67.35;100369.28;5006264;28;8872;-79
2022/01/02 06:30:43;;;;;;;;;41.00;39.00;;;;;10.33;67.08;100376.25;5047019;28;10257;-79
2022/01/02 06:33:31;;;;;;;;;40.00;35.50;;;;;10.31;67.44;100376.22;5061560;28;8853;-78
2022/01/02 06:36:18;;;;;;;;;40.75;38.25;;;;;10.34;67.28;100380.63;5061281;28;8987;-79
2022/01/02 06:39:06;;;;;;;;;38.75;36.50;;;;;10.37;66.99;100372.81;5047139;28;8857;-78
2022/01/02 06:41:53;;;;;;;;;42.75;39.25;;;;;10.41;67.09;100374.63;5047684;28;8891;-79
2022/01/02 06:44:41;;;;;;;;;46.50;41.00;;;;;10.46;66.69;100378.16;5047120;28;8853;-78
2022/01/02 06:47:28;;;;;;;;;39.50;37.50;;;;;10.45;66.99;100376.44;5046952;28;8880;-77
2022/01/02 06:50:17;;;;;;;;;45.50;40.00;;;;;10.50;67.26;100371.28;5047313;28;8840;-80
2022/01/02 06:53:04;;;;;;;;;46.75;40.50;;;;;10.54;66.18;100373.91;5061288;28;8856;-78
2022/01/02 06:55:51;;;;;;;;;53.75;41.25;;;;;10.59;66.75;100381.81;5046827;28;8877;-80
2022/01/02 06:58:40;;;;;;;;;56.25;47.00;;;;;10.65;66.34;100378.41;5047419;28;8849;-79
2022/01/02 07:01:29;;;;;;;;;55.50;48.50;;;;;10.69;66.61;100375.84;5061338;28;8856;-78
2022/01/02 07:04:16;;;;;;;;;61.75;51.00;;;;;10.77;66.34;100373.34;5061094;28;8881;-80
2022/01/02 07:07:06;;;;;;;;;51.75;43.25;;;;;10.82;66.06;100371.66;5046864;28;8868;-80
2022/01/02 07:09:53;;;;;;;;;47.50;42.00;;;;;10.89;66.10;100377.84;5061233;28;8912;-78
2022/01/02 07:12:41;;;;;;;;;45.25;40.25;;;;;10.96;65.97;100371.81;5047814;28;8846;-79
2022/01/02 07:15:28;;;;;;;;;68.75;55.50;;;;;11.03;65.71;100378.00;5050648;28;8857;-76
2022/01/02 07:18:18;;;;;;;;;71.00;57.50;;;;;11.11;65.41;100381.56;5022426;28;8850;-78
2022/01/02 07:21:05;;;;;;;;;57.25;46.50;;;;;11.19;65.21;100381.63;5051942;28;8972;-79
2022/01/02 07:23:54;;;;;;;;;44.50;40.50;;;;;11.26;64.79;100379.09;5064619;28;8871;-78
2022/01/02 07:26:42;;;;;;;;;46.25;40.50;;;;;11.32;64.81;100376.56;5035813;28;8898;-76
2022/01/02 07:29:29;;;;;;;;;47.50;40.50;;;;;11.44;64.34;100374.94;5064878;28;8841;-79
2022/01/02 07:32:17;;;;;;;;;52.00;42.50;;;;;11.50;64.15;100374.97;5051539;28;8872;-77
2022/01/02 07:35:06;;;;;;;;;49.50;42.25;;;;;11.58;63.90;100368.06;5022265;28;8849;-79
2022/01/02 07:37:53;;;;;;;;;83.00;66.00;;;;;11.67;63.91;100368.16;5049318;28;8889;-78
2022/01/02 07:40:42;;;;;;;;;77.00;60.00;;;;;11.77;63.67;100369.09;5064764;28;9084;-79
2022/01/02 07:43:29;;;;;;;;;12.00;6.00;;;;;11.85;62.63;100370.06;5049773;28;9215;-77
2022/01/02 07:46:17;;;;;;;;;56.00;43.50;;;;;11.92;63.33;100367.50;5064451;28;8977;-76
2022/01/02 07:49:04;;;;;;;;;47.25;39.25;;;;;12.02;62.60;100367.59;5050078;28;8852;-79
2022/01/02 07:51:51;;;;;;;;;46.25;41.00;;;;;12.12;62.19;100365.00;5049961;28;9579;-79
2022/01/02 07:54:39;;;;;;;;;48.25;40.50;;;;;12.15;62.00;100365.03;5050863;28;8869;-78
2022/01/02 07:57:28;;;;;;;;;50.00;40.00;;;;;12.20;61.83;100369.44;5049923;28;8872;-81
2022/01/02 08:00:16;;;;;;;;;51.00;42.25;;;;;12.25;62.07;100372.09;5008169;28;8856;-78
2022/01/02 08:03:04;;;;;;;;;92.00;75.25;;;;;12.39;61.45;100359.97;5049730;28;8904;-77
2022/01/02 08:05:54;;;;;;;;;50.25;42.25;;;;;12.40;61.35;100361.72;5050910;28;9731;-82
2022/01/02 08:08:41;;;;;;;;;67.50;53.50;;;;;12.48;61.49;100354.78;5063958;28;8860;-80
2022/01/02 08:11:28;;;;;;;;;55.75;45.75;;;;;12.52;60.38;100354.81;5049784;28;8861;-80
2022/01/02 08:14:35;;;;;;;;;72.75;58.50;;;;;12.56;60.45;100359.19;5049461;28;8888;-79
2022/01/02 08:17:22;;;;;;;;;58.00;48.25;;;;;12.54;60.35;100356.53;5034748;28;8865;-78
2022/01/02 08:20:11;;;;;;;;;59.00;47.25;;;;;12.63;60.93;100348.75;5050944;28;8845;-78
2022/01/02 08:22:58;;;;;;;;;55.75;46.75;;;;;12.69;60.22;100350.50;5063674;28;8885;-78
2022/01/02 08:25:46;;;;;;;;;56.25;45.50;;;;;12.62;60.75;100343.50;5062780;28;8869;-82
2022/01/02 08:28:34;;;;;;;;;52.75;41.75;;;;;12.27;61.45;100341.59;5049337;28;8861;-79
2022/01/02 08:31:23;;;;;;;;;53.00;43.25;;;;;12.09;61.97;100343.22;5050312;28;8908;-79
2022/01/02 08:34:10;;;;;;;;;52.75;44.75;;;;;12.14;61.82;100342.41;5020987;28;8934;-81
2022/01/02 08:36:57;;;;;;;;;55.00;45.25;;;;;12.31;62.58;100337.25;5063320;28;8841;-77
2022/01/02 08:39:44;;;;;;;;;49.00;40.25;;;;;12.38;61.93;100329.44;5050032;28;8966;-79
2022/01/02 08:42:32;;;;;;;;;50.75;42.00;;;;;12.36;62.31;100325.97;5049271;28;8840;-77
2022/01/02 08:45:20;;;;;;;;;51.75;42.25;;;;;12.56;62.22;100333.00;5049178;28;8844;-80
2022/01/02 08:48:09;;;;;;;;;49.00;41.50;;;;;12.77;61.44;100327.84;5050002;28;9726;-79
2022/01/02 08:50:56;;;;;;;;;47.00;40.25;;;;;12.78;60.96;100316.50;5049979;28;8845;-78
2022/01/02 08:53:43;;;;;;;;;51.25;43.00;;;;;12.93;59.83;100322.66;5034611;28;8853;-79
2022/01/02 08:56:30;;;;;;;;;51.25;43.25;;;;;13.05;60.06;100323.53;5053005;28;8932;-76
2022/01/02 08:59:24;;;;;;;;;45.75;40.00;;;;;13.17;59.39;100322.69;5055362;28;8844;-79
2022/01/02 09:02:11;;;;;;;;;42.00;36.25;;;;;13.17;58.88;100320.06;5069135;28;8867;-78
2022/01/02 09:05:00;;;;;;;;;37.00;34.25;;;;;13.29;58.94;100316.63;5068989;28;8881;-79
2022/01/02 09:07:47;;;;;;;;;43.75;38.00;;;;;13.35;58.21;100323.63;5055404;28;8824;-77
2022/01/02 09:10:36;;;;;;;;;41.25;35.25;;;;;13.41;58.49;100313.16;5040155;28;8856;-77
2022/01/02 09:13:26;;;;;;;;;39.75;35.25;;;;;13.53;58.07;100310.50;5070002;28;8937;-79
2022/01/02 09:16:14;;;;;;;;;38.25;36.75;;;;;13.61;58.00;100310.50;5069121;28;8852;-80
2022/01/02 09:19:01;;;;;;;;;45.00;38.25;;;;;13.70;57.53;100313.13;5068713;28;8848;-78
2022/01/02 09:21:50;;;;;;;;;40.00;34.50;;;;;13.79;57.61;100309.63;5068580;28;8848;-79
2022/01/02 09:24:37;;;;;;;;;40.25;36.25;;;;;13.84;57.02;100307.88;5068708;28;8860;-78
2022/01/02 09:27:24;;;;;;;;;39.50;36.50;;;;;13.88;57.60;100296.50;5068650;28;8876;-80
2022/01/02 09:30:13;;;;;;;;;39.50;36.00;;;;;13.94;57.22;100301.75;5069685;28;8942;-78
2022/01/02 09:33:01;;;;;;;;;45.00;39.75;;;;;13.91;57.33;100291.25;5068266;28;9656;-80
2022/01/02 09:35:48;;;;;;;;;48.25;39.00;;;;;13.97;57.32;100287.72;5068217;28;8864;-76
2022/01/02 09:38:37;;;;;;;;;48.50;40.75;;;;;14.01;56.73;100281.63;5067798;28;8839;-79
2022/01/02 09:41:24;;;;;;;;;51.00;41.25;;;;;13.96;56.66;100281.63;5053692;28;10001;-77
2022/01/02 09:44:11;;;;;;;;;47.50;41.25;;;;;14.00;57.00;100288.59;5053791;28;8844;-78
2022/01/02 09:46:59;;;;;;;;;45.00;38.00;;;;;14.04;56.56;100276.34;5068048;28;8941;-80
2022/01/02 09:49:48;;;;;;;;;45.25;40.00;;;;;13.95;57.13;100277.28;5069045;28;8862;-78
2022/01/02 09:52:37;;;;;;;;;50.25;41.50;;;;;13.97;56.77;100270.28;5067518;28;8859;-78
2022/01/02 09:55:08;;;;;;;;;51.50;43.25;;;;;14.02;56.67;100267.63;5050977;28;8860;-79
2022/01/02 09:57:42;;;;;;;;;53.00;43.75;;;;;13.99;56.99;100258.03;5050662;28;8839;-78
2022/01/02 10:00:13;;;;;;;;;50.75;39.25;;;;;14.08;57.33;100249.25;5050094;28;8890;-78
2022/01/02 10:02:55;;;;;;;;;43.25;39.00;;;;;14.17;56.75;100250.97;5067563;28;8896;-80
2022/01/02 10:05:26;;;;;;;;;42.25;38.00;;;;;14.14;57.06;100243.09;5050640;28;9660;-77
2022/01/02 10:07:57;;;;;;;;;44.75;38.25;;;;;14.23;56.92;100241.34;5050963;28;8855;-82
2022/01/02 10:10:35;;;;;;;;;46.75;36.25;;;;;14.26;56.55;100231.72;5069212;28;8848;-79
2022/01/02 10:13:04;;;;;;;;;41.00;35.75;;;;;14.20;56.08;100233.47;5067936;28;8863;-78
2022/01/02 10:15:34;;;;;;;;;31.50;29.75;;;;;14.32;56.17;100232.53;5052668;28;8852;-76
2022/01/02 10:18:05;;;;;;;;;42.25;35.00;;;;;14.43;56.25;100229.88;5071305;28;8967;-78
2022/01/02 10:20:37;;;;;;;;;49.00;42.50;;;;;14.51;56.17;100228.06;5021613;28;8836;-78
2022/01/02 10:23:14;;;;;;;;;39.75;35.75;;;;;14.60;55.68;100227.19;5052113;28;8868;-80
2022/01/02 10:25:48;;;;;;;;;39.25;34.00;;;;;14.65;55.84;100230.66;5018731;28;8897;-78
2022/01/02 10:28:28;;;;;;;;;26.80;24.40;;;;;14.75;54.78;100227.06;5051104;28;8874;-79
2022/01/02 10:31:00;;;;;;;;;37.25;34.50;;;;;14.84;55.17;100228.78;5051170;28;8866;-79
2022/01/02 10:33:46;;;;;;;;;36.50;31.25;;;;;14.91;54.68;100226.97;5050766;28;8848;-79
2022/01/02 10:36:24;;;;;;;;;36.75;30.00;;;;;15.02;54.55;100219.88;5017494;28;8902;-77
2022/01/02 10:39:10;;;;;;;;;39.50;34.75;;;;;15.09;54.33;100210.22;5068524;28;8859;-79
2022/01/02 10:41:42;;;;;;;;;41.25;36.00;;;;;15.06;54.44;100210.22;5050908;28;8852;-79
2022/01/02 10:44:22;;;;;;;;;34.75;33.50;;;;;15.18;54.91;100200.50;5050615;28;8864;-80
2022/01/02 10:47:13;;;;;;;;;32.25;29.25;;;;;15.30;53.79;100191.63;5050207;28;9011;-77
2022/01/02 10:49:58;;;;;;;;;30.00;28.60;;;;;15.43;54.50;100192.38;5051107;28;8912;-77
2022/01/02 10:52:29;;;;;;;;;34.75;32.00;;;;;15.49;54.20;100184.41;5038104;28;8868;-78
2022/01/02 10:55:00;;;;;;;;;39.75;35.00;;;;;15.56;53.21;100177.34;5019763;28;8981;-79
2022/01/02 10:57:31;;;;;;;;;32.75;30.50;;;;;15.68;53.11;100173.72;5054185;28;8851;-78
2022/01/02 11:00:01;;;;;;;;;34.20;30.20;;;;;15.60;52.66;100163.28;5054040;28;8874;-80
2022/01/02 11:02:29;;;;;;;;;36.40;33.00;;;;;15.73;53.12;100158.75;5054225;28;8863;-78
2022/01/02 11:05:00;;;;;;;;;24.20;24.00;;;;;15.78;52.75;100154.31;5053634;28;8852;-80
2022/01/02 11:07:38;;;;;;;;;25.20;23.80;;;;;15.95;52.28;100141.84;5036668;28;8844;-78
2022/01/02 11:10:08;;;;;;;;;21.40;18.60;;;;;16.04;51.95;100142.63;5020075;28;8901;-80
2022/01/02 11:12:41;;;;;;;;;20.00;20.00;;;;;16.10;52.01;100142.53;5054219;28;8891;-81
2022/01/02 11:15:12;;;;;;;;;19.40;18.20;;;;;16.20;51.62;100125.75;5037461;28;8851;-77
2022/01/02 11:17:41;;;;;;;;;24.20;23.60;;;;;16.07;51.14;100138.19;5053158;28;8875;-79
2022/01/02 11:20:12;;;;;;;;;21.60;19.40;;;;;16.06;51.08;100130.31;5053861;28;8852;-80
2022/01/02 11:22:45;;;;;;;;;22.80;20.80;;;;;16.13;51.11;100126.72;5053250;28;8909;-79
2022/01/02 11:25:22;;;;;;;;;18.00;17.00;;;;;16.26;51.46;100120.38;5053006;28;8937;-81
2022/01/02 11:27:58;;;;;;;;;24.00;21.60;;;;;16.32;50.63;100112.38;5053126;28;8844;-79
2022/01/02 11:30:49;;;;;;;;;24.80;23.40;;;;;16.30;50.38;100108.91;5070183;28;8851;-78
2022/01/02 11:33:20;;;;;;;;;26.60;25.00;;;;;16.11;50.39;100107.44;5070181;28;8997;-79
2022/01/02 11:35:50;;;;;;;;;26.40;24.00;;;;;16.03;51.32;100107.56;5053058;28;8856;-77
2022/01/02 11:38:22;;;;;;;;;27.40;24.40;;;;;15.80;52.12;100115.72;5053264;28;8855;-78
2022/01/02 11:41:00;;;;;;;;;20.20;20.00;;;;;15.98;51.77;100099.72;5036757;28;8962;-78
2022/01/02 11:43:53;;;;;;;;;23.60;19.40;;;;;16.03;51.30;100110.19;5053381;28;8984;-78
2022/01/02 11:46:26;;;;;;;;;27.00;23.60;;;;;16.14;51.13;100105.66;5071418;28;9035;-80
2022/01/02 11:49:26;;;;;;;;;20.60;19.20;;;;;16.05;50.04;100110.13;5053527;28;8922;-81
2022/01/02 11:52:23;;;;;;;;;19.80;19.80;;;;;16.26;51.04;100093.19;5008670;28;8924;-80
2022/01/02 11:54:54;;;;;;;;;17.40;17.40;;;;;16.25;50.20;100088.81;4976305;28;8867;-80
2022/01/02 11:57:56;;;;;;;;;17.00;17.00;;;;;16.43;50.28;100092.94;4976304;28;8854;-80
2022/01/02 12:00:37;;;;;;;;;24.80;18.60;;;;;16.48;49.54;100085.81;4975632;28;8858;-80
2022/01/02 12:03:26;;;;;;;;;23.20;22.00;;;;;16.50;49.73;100084.03;4976643;28;8897;-78
2022/01/02 12:06:22;;;;;;;;;20.00;17.80;;;;;16.52;49.34;100076.97;4992372;28;9005;-81
2022/01/02 12:08:52;;;;;;;;;25.40;23.60;;;;;16.43;49.32;100071.88;4976157;28;8842;-80
2022/01/02 12:11:44;;;;;;;;;23.20;19.60;;;;;16.04;49.46;100066.31;5008543;28;8939;-79
2022/01/02 12:14:22;;;;;;;;;25.40;23.40;;;;;16.21;49.63;100056.41;4975289;28;8928;-80
2022/01/02 12:16:58;;;;;;;;;21.40;19.20;;;;;16.30;49.79;100052.78;5007581;28;8874;-81
2022/01/02 12:19:27;;;;;;;;;15.20;14.00;;;;;16.36;48.84;100053.53;4992384;28;8884;-81
2022/01/02 12:22:13;;;;;;;;;16.00;15.00;;;;;16.51;49.41;100046.28;4991852;28;8846;-77
2022/01/02 12:24:43;;;;;;;;;15.20;15.20;;;;;16.49;48.40;100037.56;4969004;28;8855;-80
2022/01/02 12:27:13;;;;;;;;;19.00;17.20;;;;;16.28;48.51;100041.41;5023978;28;8864;-79
2022/01/02 12:29:43;;;;;;;;;14.00;13.40;;;;;16.13;48.77;100045.16;4994892;28;8856;-80
2022/01/02 12:32:15;;;;;;;;;15.40;15.40;;;;;16.23;48.65;100036.19;5027791;28;8856;-80
2022/01/02 12:34:44;;;;;;;;;17.60;16.40;;;;;16.30;48.37;100039.63;4995231;28;8872;-77
2022/01/02 12:37:12;;;;;;;;;15.40;15.40;;;;;16.18;49.03;100032.75;5011307;28;9679;-81
2022/01/02 12:39:43;;;;;;;;;16.20;16.20;;;;;16.36;49.10;100031.63;4994389;28;8856;-81
2022/01/02 12:42:14;;;;;;;;;13.60;13.20;;;;;16.31;48.67;100026.44;5027678;28;8907;-79
2022/01/02 12:44:44;;;;;;;;;17.40;15.20;;;;;16.10;49.09;100029.41;4995040;28;9001;-78